sensor_id;sensor_type;location;lat;lon;timestamp;P1;durP1;ratioP1;P2;durP2;ratioP2
55254;SDS011;41118;44.634;11.182;2023-09-18T00:02:05;5.88;;;2.42;;
55254;SDS011;41118;44.634;11.182;2023-09-18T00:04:31;6.90;;;1.58;;
55254;SDS011;41118;44.634;11.182;2023-09-18T00:06:57;3.83;;;1.77;;
55254;SDS011;41118;44.634;11.182;2023-09-18T00:09:23;6.55;;;1.60;;
55254;SDS011;41118;44.634;11.182;2023-09-18T00:11:49;5.55;;;1.73;;
55254;SDS011;41118;44.634;11.182;2023-09-18T00:14:15;9.93;;;1.88;;
55254;SDS011;41118;44.634;11.182;2023-09-18T00:16:41;4.43;;;1.90;;
55254;SDS011;41118;44.634;11.182;2023-09-18T00:19:07;4.82;;;1.65;;
55254;SDS011;41118;44.634;11.182;2023-09-18T00:21:34;12.68;;;1.83;;
55254;SDS011;41118;44.634;11.182;2023-09-18T00:24:00;3.75;;;1.30;;
55254;SDS011;41118;44.634;11.182;2023-09-18T00:26:26;4.78;;;1.60;;
55254;SDS011;41118;44.634;11.182;2023-09-18T00:28:52;6.32;;;1.65;;
55254;SDS011;41118;44.634;11.182;2023-09-18T00:31:18;6.10;;;1.23;;
55254;SDS011;41118;44.634;11.182;2023-09-18T00:33:44;6.65;;;0.85;;
55254;SDS011;41118;44.634;11.182;2023-09-18T00:36:11;5.85;;;1.80;;
55254;SDS011;41118;44.634;11.182;2023-09-18T00:38:37;7.32;;;1.60;;
55254;SDS011;41118;44.634;11.182;2023-09-18T00:41:03;6.22;;;1.35;;
55254;SDS011;41118;44.634;11.182;2023-09-18T00:43:31;8.32;;;1.23;;
55254;SDS011;41118;44.634;11.182;2023-09-18T00:45:57;6.18;;;2.30;;
55254;SDS011;41118;44.634;11.182;2023-09-18T00:48:24;7.35;;;1.55;;
55254;SDS011;41118;44.634;11.182;2023-09-18T00:50:51;3.67;;;1.10;;
55254;SDS011;41118;44.634;11.182;2023-09-18T00:53:18;9.95;;;1.83;;
55254;SDS011;41118;44.634;11.182;2023-09-18T00:55:46;6.18;;;1.33;;
55254;SDS011;41118;44.634;11.182;2023-09-18T00:58:12;5.75;;;2.47;;
55254;SDS011;41118;44.634;11.182;2023-09-18T01:00:39;6.72;;;0.98;;
55254;SDS011;41118;44.634;11.182;2023-09-18T01:03:06;6.97;;;1.20;;
55254;SDS011;41118;44.634;11.182;2023-09-18T01:05:32;8.82;;;1.45;;
55254;SDS011;41118;44.634;11.182;2023-09-18T01:07:59;6.53;;;2.22;;
55254;SDS011;41118;44.634;11.182;2023-09-18T01:10:27;6.82;;;1.08;;
55254;SDS011;41118;44.634;11.182;2023-09-18T01:12:55;11.40;;;2.47;;
55254;SDS011;41118;44.634;11.182;2023-09-18T01:15:35;6.72;;;1.45;;
55254;SDS011;41118;44.634;11.182;2023-09-18T01:18:02;3.97;;;1.15;;
55254;SDS011;41118;44.634;11.182;2023-09-18T01:20:29;6.15;;;1.20;;
55254;SDS011;41118;44.634;11.182;2023-09-18T01:22:55;5.07;;;1.92;;
55254;SDS011;41118;44.634;11.182;2023-09-18T01:25:21;7.55;;;1.63;;
55254;SDS011;41118;44.634;11.182;2023-09-18T01:27:48;3.55;;;1.45;;
55254;SDS011;41118;44.634;11.182;2023-09-18T01:30:14;5.45;;;1.88;;
55254;SDS011;41118;44.634;11.182;2023-09-18T01:32:40;6.70;;;2.35;;
55254;SDS011;41118;44.634;11.182;2023-09-18T01:35:07;4.65;;;0.85;;
55254;SDS011;41118;44.634;11.182;2023-09-18T01:37:35;5.03;;;2.40;;
55254;SDS011;41118;44.634;11.182;2023-09-18T01:40:03;4.78;;;2.00;;
55254;SDS011;41118;44.634;11.182;2023-09-18T01:42:31;4.50;;;1.55;;
55254;SDS011;41118;44.634;11.182;2023-09-18T01:44:58;6.13;;;2.47;;
55254;SDS011;41118;44.634;11.182;2023-09-18T01:47:24;3.25;;;0.98;;
55254;SDS011;41118;44.634;11.182;2023-09-18T01:49:54;8.50;;;2.25;;
55254;SDS011;41118;44.634;11.182;2023-09-18T01:52:20;4.82;;;1.00;;
55254;SDS011;41118;44.634;11.182;2023-09-18T01:54:46;7.35;;;1.50;;
55254;SDS011;41118;44.634;11.182;2023-09-18T01:57:13;7.95;;;1.58;;
55254;SDS011;41118;44.634;11.182;2023-09-18T01:59:39;2.88;;;1.50;;
55254;SDS011;41118;44.634;11.182;2023-09-18T02:02:06;3.58;;;1.40;;
55254;SDS011;41118;44.634;11.182;2023-09-18T02:04:34;4.97;;;1.27;;
55254;SDS011;41118;44.634;11.182;2023-09-18T02:07:00;6.05;;;1.58;;
55254;SDS011;41118;44.634;11.182;2023-09-18T02:09:26;4.82;;;1.23;;
55254;SDS011;41118;44.634;11.182;2023-09-18T02:11:52;5.22;;;1.67;;
55254;SDS011;41118;44.634;11.182;2023-09-18T02:14:18;5.35;;;1.33;;
55254;SDS011;41118;44.634;11.182;2023-09-18T02:16:45;4.25;;;1.50;;
55254;SDS011;41118;44.634;11.182;2023-09-18T02:19:12;2.80;;;0.93;;
55254;SDS011;41118;44.634;11.182;2023-09-18T02:21:45;8.15;;;1.48;;
55254;SDS011;41118;44.634;11.182;2023-09-18T02:24:11;3.42;;;1.00;;
55254;SDS011;41118;44.634;11.182;2023-09-18T02:26:38;5.78;;;1.40;;
55254;SDS011;41118;44.634;11.182;2023-09-18T02:29:05;3.20;;;1.35;;
55254;SDS011;41118;44.634;11.182;2023-09-18T02:31:32;5.47;;;1.52;;
55254;SDS011;41118;44.634;11.182;2023-09-18T02:33:58;6.30;;;2.03;;
55254;SDS011;41118;44.634;11.182;2023-09-18T02:36:24;2.80;;;0.65;;
55254;SDS011;41118;44.634;11.182;2023-09-18T02:38:51;3.70;;;1.52;;
55254;SDS011;41118;44.634;11.182;2023-09-18T02:41:17;3.50;;;0.90;;
55254;SDS011;41118;44.634;11.182;2023-09-18T02:43:43;5.28;;;1.08;;
55254;SDS011;41118;44.634;11.182;2023-09-18T02:46:09;3.78;;;0.80;;
55254;SDS011;41118;44.634;11.182;2023-09-18T02:48:35;12.00;;;1.77;;
55254;SDS011;41118;44.634;11.182;2023-09-18T02:51:01;6.78;;;1.50;;
55254;SDS011;41118;44.634;11.182;2023-09-18T02:53:27;8.13;;;2.45;;
55254;SDS011;41118;44.634;11.182;2023-09-18T02:55:54;2.60;;;1.25;;
55254;SDS011;41118;44.634;11.182;2023-09-18T02:58:21;4.30;;;1.08;;
55254;SDS011;41118;44.634;11.182;2023-09-18T03:00:48;4.80;;;1.35;;
55254;SDS011;41118;44.634;11.182;2023-09-18T03:03:15;9.52;;;2.10;;
55254;SDS011;41118;44.634;11.182;2023-09-18T03:05:41;6.20;;;2.00;;
55254;SDS011;41118;44.634;11.182;2023-09-18T03:08:08;4.15;;;1.63;;
55254;SDS011;41118;44.634;11.182;2023-09-18T03:10:34;5.18;;;1.88;;
55254;SDS011;41118;44.634;11.182;2023-09-18T03:13:01;4.70;;;1.23;;
55254;SDS011;41118;44.634;11.182;2023-09-18T03:15:27;4.70;;;0.88;;
55254;SDS011;41118;44.634;11.182;2023-09-18T03:17:53;4.97;;;1.50;;
55254;SDS011;41118;44.634;11.182;2023-09-18T03:20:22;5.93;;;1.63;;
55254;SDS011;41118;44.634;11.182;2023-09-18T03:22:48;3.38;;;1.02;;
55254;SDS011;41118;44.634;11.182;2023-09-18T03:25:14;4.35;;;0.70;;
55254;SDS011;41118;44.634;11.182;2023-09-18T03:27:40;6.35;;;1.63;;
55254;SDS011;41118;44.634;11.182;2023-09-18T03:30:07;8.05;;;1.80;;
55254;SDS011;41118;44.634;11.182;2023-09-18T03:32:33;10.27;;;1.63;;
55254;SDS011;41118;44.634;11.182;2023-09-18T03:35:00;5.05;;;1.73;;
55254;SDS011;41118;44.634;11.182;2023-09-18T03:37:26;5.13;;;1.85;;
55254;SDS011;41118;44.634;11.182;2023-09-18T03:39:52;6.15;;;2.35;;
55254;SDS011;41118;44.634;11.182;2023-09-18T03:42:18;11.68;;;1.95;;
55254;SDS011;41118;44.634;11.182;2023-09-18T03:44:44;10.20;;;3.30;;
55254;SDS011;41118;44.634;11.182;2023-09-18T03:47:10;5.80;;;1.80;;
55254;SDS011;41118;44.634;11.182;2023-09-18T03:49:37;4.43;;;1.73;;
55254;SDS011;41118;44.634;11.182;2023-09-18T03:52:03;5.60;;;1.67;;
55254;SDS011;41118;44.634;11.182;2023-09-18T03:54:29;3.78;;;1.00;;
55254;SDS011;41118;44.634;11.182;2023-09-18T03:56:55;4.82;;;1.02;;
55254;SDS011;41118;44.634;11.182;2023-09-18T03:59:21;7.50;;;1.10;;
55254;SDS011;41118;44.634;11.182;2023-09-18T04:01:48;8.07;;;1.42;;
55254;SDS011;41118;44.634;11.182;2023-09-18T04:04:14;6.30;;;1.48;;
55254;SDS011;41118;44.634;11.182;2023-09-18T04:06:41;4.13;;;2.15;;
55254;SDS011;41118;44.634;11.182;2023-09-18T04:09:08;4.53;;;1.25;;
55254;SDS011;41118;44.634;11.182;2023-09-18T04:11:34;4.22;;;1.10;;
55254;SDS011;41118;44.634;11.182;2023-09-18T04:14:01;4.60;;;0.98;;
55254;SDS011;41118;44.634;11.182;2023-09-18T04:16:30;6.03;;;1.23;;
55254;SDS011;41118;44.634;11.182;2023-09-18T04:18:56;4.88;;;2.13;;
55254;SDS011;41118;44.634;11.182;2023-09-18T04:21:22;8.07;;;1.77;;
55254;SDS011;41118;44.634;11.182;2023-09-18T04:23:50;7.07;;;1.52;;
55254;SDS011;41118;44.634;11.182;2023-09-18T04:26:20;8.15;;;1.08;;
55254;SDS011;41118;44.634;11.182;2023-09-18T04:28:47;5.95;;;1.30;;
55254;SDS011;41118;44.634;11.182;2023-09-18T04:31:13;2.88;;;1.02;;
55254;SDS011;41118;44.634;11.182;2023-09-18T04:33:39;3.70;;;1.05;;
55254;SDS011;41118;44.634;11.182;2023-09-18T04:36:05;6.55;;;1.73;;
55254;SDS011;41118;44.634;11.182;2023-09-18T04:38:31;8.30;;;0.80;;
55254;SDS011;41118;44.634;11.182;2023-09-18T04:40:58;3.72;;;1.40;;
55254;SDS011;41118;44.634;11.182;2023-09-18T04:43:24;14.15;;;1.75;;
55254;SDS011;41118;44.634;11.182;2023-09-18T04:45:50;3.88;;;1.00;;
55254;SDS011;41118;44.634;11.182;2023-09-18T04:48:17;3.17;;;0.90;;
55254;SDS011;41118;44.634;11.182;2023-09-18T04:50:43;6.47;;;1.45;;
55254;SDS011;41118;44.634;11.182;2023-09-18T04:53:09;8.38;;;1.15;;
55254;SDS011;41118;44.634;11.182;2023-09-18T04:55:35;6.47;;;1.30;;
55254;SDS011;41118;44.634;11.182;2023-09-18T04:58:03;5.22;;;1.77;;
55254;SDS011;41118;44.634;11.182;2023-09-18T05:00:30;5.13;;;1.83;;
55254;SDS011;41118;44.634;11.182;2023-09-18T05:02:57;4.00;;;1.23;;
55254;SDS011;41118;44.634;11.182;2023-09-18T05:05:28;8.55;;;1.50;;
55254;SDS011;41118;44.634;11.182;2023-09-18T05:07:54;6.50;;;1.67;;
55254;SDS011;41118;44.634;11.182;2023-09-18T05:10:21;2.95;;;1.50;;
55254;SDS011;41118;44.634;11.182;2023-09-18T05:12:48;9.38;;;1.15;;
55254;SDS011;41118;44.634;11.182;2023-09-18T05:15:15;4.25;;;1.35;;
55254;SDS011;41118;44.634;11.182;2023-09-18T05:17:43;10.00;;;1.92;;
55254;SDS011;41118;44.634;11.182;2023-09-18T05:20:11;5.95;;;1.85;;
55254;SDS011;41118;44.634;11.182;2023-09-18T05:22:41;6.07;;;1.55;;
55254;SDS011;41118;44.634;11.182;2023-09-18T05:25:11;11.70;;;2.30;;
55254;SDS011;41118;44.634;11.182;2023-09-18T05:27:39;5.18;;;2.05;;
55254;SDS011;41118;44.634;11.182;2023-09-18T05:30:12;6.22;;;1.75;;
55254;SDS011;41118;44.634;11.182;2023-09-18T05:32:40;5.88;;;1.42;;
55254;SDS011;41118;44.634;11.182;2023-09-18T05:35:06;3.60;;;1.17;;
55254;SDS011;41118;44.634;11.182;2023-09-18T05:37:35;6.72;;;2.22;;
55254;SDS011;41118;44.634;11.182;2023-09-18T05:40:01;7.55;;;3.35;;
55254;SDS011;41118;44.634;11.182;2023-09-18T05:42:29;4.55;;;2.38;;
55254;SDS011;41118;44.634;11.182;2023-09-18T05:44:56;11.43;;;1.77;;
55254;SDS011;41118;44.634;11.182;2023-09-18T05:47:22;9.18;;;1.92;;
55254;SDS011;41118;44.634;11.182;2023-09-18T05:49:48;6.70;;;1.38;;
55254;SDS011;41118;44.634;11.182;2023-09-18T05:52:14;8.70;;;2.85;;
55254;SDS011;41118;44.634;11.182;2023-09-18T05:54:40;9.18;;;2.08;;
55254;SDS011;41118;44.634;11.182;2023-09-18T05:57:06;9.02;;;2.30;;
55254;SDS011;41118;44.634;11.182;2023-09-18T05:59:32;14.27;;;2.88;;
55254;SDS011;41118;44.634;11.182;2023-09-18T06:01:58;19.27;;;2.50;;
55254;SDS011;41118;44.634;11.182;2023-09-18T06:04:24;7.65;;;2.65;;
55254;SDS011;41118;44.634;11.182;2023-09-18T06:06:51;7.20;;;2.30;;
55254;SDS011;41118;44.634;11.182;2023-09-18T06:09:16;8.60;;;2.63;;
55254;SDS011;41118;44.634;11.182;2023-09-18T06:11:43;11.52;;;3.28;;
55254;SDS011;41118;44.634;11.182;2023-09-18T06:14:09;4.97;;;1.55;;
55254;SDS011;41118;44.634;11.182;2023-09-18T06:16:36;5.75;;;1.88;;
55254;SDS011;41118;44.634;11.182;2023-09-18T06:19:02;9.95;;;1.63;;
55254;SDS011;41118;44.634;11.182;2023-09-18T06:21:28;6.07;;;2.90;;
55254;SDS011;41118;44.634;11.182;2023-09-18T06:23:54;9.98;;;0.90;;
55254;SDS011;41118;44.634;11.182;2023-09-18T06:26:20;5.57;;;1.20;;
55254;SDS011;41118;44.634;11.182;2023-09-18T06:28:46;9.43;;;2.20;;
55254;SDS011;41118;44.634;11.182;2023-09-18T06:31:13;8.27;;;1.73;;
55254;SDS011;41118;44.634;11.182;2023-09-18T06:33:39;4.57;;;1.67;;
55254;SDS011;41118;44.634;11.182;2023-09-18T06:36:05;5.13;;;1.67;;
55254;SDS011;41118;44.634;11.182;2023-09-18T06:38:31;4.82;;;1.48;;
55254;SDS011;41118;44.634;11.182;2023-09-18T06:40:58;3.88;;;2.15;;
55254;SDS011;41118;44.634;11.182;2023-09-18T06:43:24;8.00;;;2.90;;
55254;SDS011;41118;44.634;11.182;2023-09-18T06:45:50;9.52;;;2.08;;
55254;SDS011;41118;44.634;11.182;2023-09-18T06:48:16;8.57;;;1.52;;
55254;SDS011;41118;44.634;11.182;2023-09-18T06:50:42;11.63;;;2.28;;
55254;SDS011;41118;44.634;11.182;2023-09-18T06:53:08;6.28;;;2.10;;
55254;SDS011;41118;44.634;11.182;2023-09-18T06:55:35;10.52;;;2.28;;
55254;SDS011;41118;44.634;11.182;2023-09-18T06:58:01;7.10;;;1.70;;
55254;SDS011;41118;44.634;11.182;2023-09-18T07:00:28;8.63;;;2.85;;
55254;SDS011;41118;44.634;11.182;2023-09-18T07:02:55;8.63;;;2.42;;
55254;SDS011;41118;44.634;11.182;2023-09-18T07:05:21;7.65;;;3.47;;
55254;SDS011;41118;44.634;11.182;2023-09-18T07:07:47;9.85;;;2.75;;
55254;SDS011;41118;44.634;11.182;2023-09-18T07:10:13;11.05;;;2.95;;
55254;SDS011;41118;44.634;11.182;2023-09-18T07:12:39;14.40;;;3.95;;
55254;SDS011;41118;44.634;11.182;2023-09-18T07:15:05;7.55;;;2.97;;
55254;SDS011;41118;44.634;11.182;2023-09-18T07:17:32;9.75;;;3.25;;
55254;SDS011;41118;44.634;11.182;2023-09-18T07:19:58;14.43;;;3.75;;
55254;SDS011;41118;44.634;11.182;2023-09-18T07:22:25;10.82;;;3.10;;
55254;SDS011;41118;44.634;11.182;2023-09-18T07:24:51;11.25;;;4.45;;
55254;SDS011;41118;44.634;11.182;2023-09-18T07:27:18;11.73;;;4.50;;
55254;SDS011;41118;44.634;11.182;2023-09-18T07:29:44;18.58;;;3.95;;
55254;SDS011;41118;44.634;11.182;2023-09-18T07:32:10;9.32;;;4.35;;
55254;SDS011;41118;44.634;11.182;2023-09-18T07:34:37;11.82;;;4.82;;
55254;SDS011;41118;44.634;11.182;2023-09-18T07:37:04;13.90;;;5.72;;
55254;SDS011;41118;44.634;11.182;2023-09-18T07:39:30;13.20;;;5.15;;
55254;SDS011;41118;44.634;11.182;2023-09-18T07:41:56;14.02;;;3.92;;
55254;SDS011;41118;44.634;11.182;2023-09-18T07:44:22;14.23;;;4.20;;
55254;SDS011;41118;44.634;11.182;2023-09-18T07:46:48;15.32;;;5.35;;
55254;SDS011;41118;44.634;11.182;2023-09-18T07:49:15;9.95;;;4.47;;
55254;SDS011;41118;44.634;11.182;2023-09-18T07:51:41;9.90;;;4.40;;
55254;SDS011;41118;44.634;11.182;2023-09-18T07:54:07;11.73;;;4.45;;
55254;SDS011;41118;44.634;11.182;2023-09-18T07:56:33;16.38;;;4.13;;
55254;SDS011;41118;44.634;11.182;2023-09-18T07:59:01;11.45;;;4.20;;
55254;SDS011;41118;44.634;11.182;2023-09-18T08:01:27;11.45;;;6.18;;
55254;SDS011;41118;44.634;11.182;2023-09-18T08:03:56;15.75;;;5.63;;
55254;SDS011;41118;44.634;11.182;2023-09-18T08:06:24;10.98;;;4.85;;
55254;SDS011;41118;44.634;11.182;2023-09-18T08:08:51;19.13;;;6.80;;
55254;SDS011;41118;44.634;11.182;2023-09-18T08:11:18;14.25;;;5.90;;
55254;SDS011;41118;44.634;11.182;2023-09-18T08:13:44;12.73;;;6.60;;
55254;SDS011;41118;44.634;11.182;2023-09-18T08:16:10;13.60;;;4.28;;
55254;SDS011;41118;44.634;11.182;2023-09-18T08:18:36;16.88;;;5.22;;
55254;SDS011;41118;44.634;11.182;2023-09-18T08:21:06;13.70;;;5.13;;
55254;SDS011;41118;44.634;11.182;2023-09-18T08:23:34;18.45;;;5.65;;
55254;SDS011;41118;44.634;11.182;2023-09-18T08:26:00;14.80;;;4.03;;
55254;SDS011;41118;44.634;11.182;2023-09-18T08:28:27;18.95;;;5.55;;
55254;SDS011;41118;44.634;11.182;2023-09-18T08:30:54;11.30;;;4.82;;
55254;SDS011;41118;44.634;11.182;2023-09-18T08:33:20;11.02;;;5.53;;
55254;SDS011;41118;44.634;11.182;2023-09-18T08:35:46;9.50;;;4.90;;
55254;SDS011;41118;44.634;11.182;2023-09-18T08:38:14;18.08;;;6.55;;
55254;SDS011;41118;44.634;11.182;2023-09-18T08:40:41;16.55;;;6.10;;
55254;SDS011;41118;44.634;11.182;2023-09-18T08:43:27;19.38;;;6.72;;
55254;SDS011;41118;44.634;11.182;2023-09-18T08:45:55;17.45;;;5.93;;
55254;SDS011;41118;44.634;11.182;2023-09-18T08:48:26;18.70;;;7.57;;
55254;SDS011;41118;44.634;11.182;2023-09-18T08:53:26;15.13;;;5.95;;
55254;SDS011;41118;44.634;11.182;2023-09-18T08:55:52;14.25;;;6.45;;
55254;SDS011;41118;44.634;11.182;2023-09-18T08:58:23;20.50;;;8.27;;
55254;SDS011;41118;44.634;11.182;2023-09-18T09:00:49;17.88;;;5.53;;
55254;SDS011;41118;44.634;11.182;2023-09-18T09:03:15;15.23;;;5.72;;
55254;SDS011;41118;44.634;11.182;2023-09-18T09:05:42;13.35;;;5.32;;
55254;SDS011;41118;44.634;11.182;2023-09-18T09:08:08;17.95;;;7.03;;
55254;SDS011;41118;44.634;11.182;2023-09-18T09:10:34;15.60;;;6.10;;
55254;SDS011;41118;44.634;11.182;2023-09-18T09:13:00;16.75;;;7.07;;
55254;SDS011;41118;44.634;11.182;2023-09-18T09:15:48;16.15;;;7.07;;
55254;SDS011;41118;44.634;11.182;2023-09-18T09:18:15;18.90;;;5.97;;
55254;SDS011;41118;44.634;11.182;2023-09-18T09:20:52;14.95;;;6.57;;
55254;SDS011;41118;44.634;11.182;2023-09-18T09:23:19;18.58;;;6.45;;
55254;SDS011;41118;44.634;11.182;2023-09-18T09:25:45;16.27;;;5.82;;
55254;SDS011;41118;44.634;11.182;2023-09-18T09:28:12;18.88;;;7.75;;
55254;SDS011;41118;44.634;11.182;2023-09-18T09:30:38;18.70;;;7.20;;
55254;SDS011;41118;44.634;11.182;2023-09-18T09:33:04;15.05;;;5.75;;
55254;SDS011;41118;44.634;11.182;2023-09-18T09:35:32;17.15;;;6.75;;
55254;SDS011;41118;44.634;11.182;2023-09-18T09:37:59;19.95;;;7.72;;
55254;SDS011;41118;44.634;11.182;2023-09-18T09:40:26;14.27;;;6.47;;
55254;SDS011;41118;44.634;11.182;2023-09-18T09:42:53;13.93;;;5.70;;
55254;SDS011;41118;44.634;11.182;2023-09-18T09:45:22;19.90;;;7.20;;
55254;SDS011;41118;44.634;11.182;2023-09-18T09:47:48;17.75;;;6.30;;
55254;SDS011;41118;44.634;11.182;2023-09-18T09:50:19;18.33;;;8.25;;
55254;SDS011;41118;44.634;11.182;2023-09-18T09:52:47;16.58;;;7.00;;
55254;SDS011;41118;44.634;11.182;2023-09-18T09:55:21;20.02;;;7.40;;
55254;SDS011;41118;44.634;11.182;2023-09-18T09:57:48;17.17;;;7.38;;
55254;SDS011;41118;44.634;11.182;2023-09-18T10:00:14;14.23;;;6.43;;
55254;SDS011;41118;44.634;11.182;2023-09-18T10:03:01;26.92;;;9.25;;
55254;SDS011;41118;44.634;11.182;2023-09-18T10:05:41;23.73;;;7.03;;
55254;SDS011;41118;44.634;11.182;2023-09-18T10:08:12;18.42;;;7.63;;
55254;SDS011;41118;44.634;11.182;2023-09-18T10:10:40;18.90;;;7.70;;
55254;SDS011;41118;44.634;11.182;2023-09-18T10:13:10;20.50;;;8.18;;
55254;SDS011;41118;44.634;11.182;2023-09-18T10:15:38;13.82;;;6.55;;
55254;SDS011;41118;44.634;11.182;2023-09-18T10:18:05;19.23;;;6.40;;
55254;SDS011;41118;44.634;11.182;2023-09-18T10:20:36;31.73;;;9.93;;
55254;SDS011;41118;44.634;11.182;2023-09-18T10:23:02;22.40;;;9.82;;
55254;SDS011;41118;44.634;11.182;2023-09-18T10:25:32;22.90;;;7.50;;
55254;SDS011;41118;44.634;11.182;2023-09-18T10:27:58;26.27;;;9.57;;
55254;SDS011;41118;44.634;11.182;2023-09-18T10:30:26;20.40;;;8.98;;
55254;SDS011;41118;44.634;11.182;2023-09-18T10:32:53;19.77;;;9.95;;
55254;SDS011;41118;44.634;11.182;2023-09-18T10:35:19;21.27;;;9.48;;
55254;SDS011;41118;44.634;11.182;2023-09-18T10:37:46;18.73;;;8.50;;
55254;SDS011;41118;44.634;11.182;2023-09-18T10:40:14;23.63;;;9.68;;
55254;SDS011;41118;44.634;11.182;2023-09-18T10:42:41;24.70;;;10.20;;
55254;SDS011;41118;44.634;11.182;2023-09-18T10:45:08;28.42;;;11.13;;
55254;SDS011;41118;44.634;11.182;2023-09-18T10:47:41;31.58;;;12.35;;
55254;SDS011;41118;44.634;11.182;2023-09-18T10:50:08;23.33;;;10.88;;
55254;SDS011;41118;44.634;11.182;2023-09-18T10:52:43;24.88;;;11.10;;
55254;SDS011;41118;44.634;11.182;2023-09-18T10:55:13;31.27;;;11.90;;
55254;SDS011;41118;44.634;11.182;2023-09-18T10:57:55;27.42;;;10.43;;
55254;SDS011;41118;44.634;11.182;2023-09-18T11:00:24;27.10;;;12.15;;
55254;SDS011;41118;44.634;11.182;2023-09-18T11:02:54;20.10;;;8.73;;
55254;SDS011;41118;44.634;11.182;2023-09-18T11:05:30;25.75;;;10.05;;
55254;SDS011;41118;44.634;11.182;2023-09-18T11:11:06;24.00;;;11.45;;
55254;SDS011;41118;44.634;11.182;2023-09-18T11:13:35;24.73;;;11.52;;
55254;SDS011;41118;44.634;11.182;2023-09-18T11:16:47;28.48;;;10.90;;
55254;SDS011;41118;44.634;11.182;2023-09-18T11:18:50;21.90;;;10.10;;
55254;SDS011;41118;44.634;11.182;2023-09-18T11:21:26;29.95;;;11.65;;
55254;SDS011;41118;44.634;11.182;2023-09-18T11:24:08;24.83;;;10.07;;
55254;SDS011;41118;44.634;11.182;2023-09-18T11:26:41;26.15;;;8.82;;
55254;SDS011;41118;44.634;11.182;2023-09-18T11:29:09;20.65;;;8.70;;
55254;SDS011;41118;44.634;11.182;2023-09-18T11:31:42;22.98;;;8.57;;
55254;SDS011;41118;44.634;11.182;2023-09-18T11:34:20;19.85;;;8.18;;
55254;SDS011;41118;44.634;11.182;2023-09-18T11:36:47;19.63;;;9.00;;
55254;SDS011;41118;44.634;11.182;2023-09-18T11:39:13;16.90;;;7.85;;
55254;SDS011;41118;44.634;11.182;2023-09-18T11:41:39;19.58;;;8.05;;
55254;SDS011;41118;44.634;11.182;2023-09-18T11:46:50;15.32;;;7.05;;
55254;SDS011;41118;44.634;11.182;2023-09-18T11:49:23;16.33;;;5.55;;
55254;SDS011;41118;44.634;11.182;2023-09-18T11:51:53;17.65;;;6.38;;
55254;SDS011;41118;44.634;11.182;2023-09-18T11:54:19;13.55;;;6.30;;
55254;SDS011;41118;44.634;11.182;2023-09-18T11:56:46;18.85;;;7.85;;
55254;SDS011;41118;44.634;11.182;2023-09-18T11:59:12;21.02;;;6.70;;
55254;SDS011;41118;44.634;11.182;2023-09-18T12:01:38;14.80;;;6.53;;
55254;SDS011;41118;44.634;11.182;2023-09-18T12:04:05;14.73;;;6.18;;
55254;SDS011;41118;44.634;11.182;2023-09-18T12:06:38;13.30;;;4.72;;
55254;SDS011;41118;44.634;11.182;2023-09-18T12:09:05;20.75;;;5.10;;
55254;SDS011;41118;44.634;11.182;2023-09-18T12:11:35;10.43;;;3.85;;
55254;SDS011;41118;44.634;11.182;2023-09-18T12:14:02;12.60;;;4.00;;
55254;SDS011;41118;44.634;11.182;2023-09-18T12:16:29;11.68;;;3.88;;
55254;SDS011;41118;44.634;11.182;2023-09-18T12:18:55;15.95;;;3.72;;
55254;SDS011;41118;44.634;11.182;2023-09-18T12:21:22;12.85;;;3.17;;
55254;SDS011;41118;44.634;11.182;2023-09-18T12:23:48;9.95;;;3.80;;
55254;SDS011;41118;44.634;11.182;2023-09-18T12:26:15;5.25;;;2.20;;
55254;SDS011;41118;44.634;11.182;2023-09-18T12:28:45;7.35;;;1.42;;
55254;SDS011;41118;44.634;11.182;2023-09-18T12:31:14;12.88;;;4.40;;
55254;SDS011;41118;44.634;11.182;2023-09-18T12:33:43;8.27;;;2.67;;
55254;SDS011;41118;44.634;11.182;2023-09-18T12:36:12;9.05;;;2.53;;
55254;SDS011;41118;44.634;11.182;2023-09-18T12:38:39;17.48;;;2.63;;
55254;SDS011;41118;44.634;11.182;2023-09-18T12:41:06;12.48;;;3.15;;
55254;SDS011;41118;44.634;11.182;2023-09-18T12:43:41;10.60;;;2.67;;
55254;SDS011;41118;44.634;11.182;2023-09-18T12:46:09;15.63;;;4.05;;
55254;SDS011;41118;44.634;11.182;2023-09-18T12:48:40;11.75;;;2.47;;
55254;SDS011;41118;44.634;11.182;2023-09-18T12:51:18;7.60;;;2.15;;
55254;SDS011;41118;44.634;11.182;2023-09-18T12:53:47;14.00;;;3.30;;
55254;SDS011;41118;44.634;11.182;2023-09-18T12:56:17;7.40;;;2.55;;
55254;SDS011;41118;44.634;11.182;2023-09-18T12:58:43;12.43;;;2.25;;
55254;SDS011;41118;44.634;11.182;2023-09-18T13:01:11;10.48;;;1.90;;
55254;SDS011;41118;44.634;11.182;2023-09-18T13:03:44;10.48;;;1.52;;
55254;SDS011;41118;44.634;11.182;2023-09-18T13:06:12;7.03;;;2.38;;
55254;SDS011;41118;44.634;11.182;2023-09-18T13:08:42;5.53;;;1.90;;
55254;SDS011;41118;44.634;11.182;2023-09-18T13:11:11;5.82;;;1.45;;
55254;SDS011;41118;44.634;11.182;2023-09-18T13:13:41;5.70;;;1.52;;
55254;SDS011;41118;44.634;11.182;2023-09-18T13:16:14;3.20;;;0.65;;
55254;SDS011;41118;44.634;11.182;2023-09-18T13:18:41;8.90;;;1.20;;
55254;SDS011;41118;44.634;11.182;2023-09-18T13:21:10;6.22;;;1.13;;
55254;SDS011;41118;44.634;11.182;2023-09-18T13:23:37;5.00;;;1.75;;
55254;SDS011;41118;44.634;11.182;2023-09-18T13:26:03;11.57;;;2.88;;
55254;SDS011;41118;44.634;11.182;2023-09-18T13:28:30;10.23;;;3.45;;
55254;SDS011;41118;44.634;11.182;2023-09-18T13:30:57;5.72;;;1.83;;
55254;SDS011;41118;44.634;11.182;2023-09-18T13:33:29;5.00;;;2.15;;
55254;SDS011;41118;44.634;11.182;2023-09-18T13:35:57;5.72;;;1.85;;
55254;SDS011;41118;44.634;11.182;2023-09-18T13:38:24;15.05;;;2.95;;
55254;SDS011;41118;44.634;11.182;2023-09-18T13:40:51;9.45;;;2.53;;
55254;SDS011;41118;44.634;11.182;2023-09-18T13:43:19;9.68;;;2.00;;
55254;SDS011;41118;44.634;11.182;2023-09-18T13:45:48;8.27;;;1.83;;
55254;SDS011;41118;44.634;11.182;2023-09-18T13:48:24;10.73;;;2.95;;
55254;SDS011;41118;44.634;11.182;2023-09-18T13:50:51;8.27;;;2.05;;
55254;SDS011;41118;44.634;11.182;2023-09-18T13:53:17;8.93;;;2.47;;
55254;SDS011;41118;44.634;11.182;2023-09-18T13:55:43;7.38;;;1.20;;
55254;SDS011;41118;44.634;11.182;2023-09-18T13:58:09;12.25;;;2.05;;
55254;SDS011;41118;44.634;11.182;2023-09-18T14:00:35;11.20;;;2.65;;
55254;SDS011;41118;44.634;11.182;2023-09-18T14:03:02;4.57;;;1.92;;
55254;SDS011;41118;44.634;11.182;2023-09-18T14:05:28;9.75;;;2.65;;
55254;SDS011;41118;44.634;11.182;2023-09-18T14:07:55;6.78;;;1.80;;
55254;SDS011;41118;44.634;11.182;2023-09-18T14:10:25;5.97;;;1.70;;
55254;SDS011;41118;44.634;11.182;2023-09-18T14:12:51;10.57;;;1.80;;
55254;SDS011;41118;44.634;11.182;2023-09-18T14:15:17;8.07;;;1.50;;
55254;SDS011;41118;44.634;11.182;2023-09-18T14:17:43;8.27;;;0.80;;
55254;SDS011;41118;44.634;11.182;2023-09-18T14:20:10;22.80;;;1.90;;
55254;SDS011;41118;44.634;11.182;2023-09-18T14:22:36;4.75;;;0.93;;
55254;SDS011;41118;44.634;11.182;2023-09-18T14:25:03;8.23;;;1.70;;
55254;SDS011;41118;44.634;11.182;2023-09-18T14:27:31;5.18;;;1.08;;
55254;SDS011;41118;44.634;11.182;2023-09-18T14:29:57;7.60;;;1.10;;
55254;SDS011;41118;44.634;11.182;2023-09-18T14:32:23;6.93;;;1.58;;
55254;SDS011;41118;44.634;11.182;2023-09-18T14:34:49;9.93;;;1.02;;
55254;SDS011;41118;44.634;11.182;2023-09-18T14:37:15;4.43;;;1.08;;
55254;SDS011;41118;44.634;11.182;2023-09-18T14:39:41;6.30;;;0.80;;